Archival Weather

Chicago O'Hare International

Chicago, Illinois (KORD)

Report from: Thursday, June 23, 2022 2:51 AM CDT
Current time: Sunday, June 26, 2022 12:46 PM CDT

Current weather
Weather history
Weather forecast

Temperature20.6°C (69.1°F)
Dew point13.3°C (55.9°F)
Winds 6 kts (3.1 m/s, 6.9 mph) North-Northwest (340°)
Visibility10 mi. (16.1 km)
Clouds Few clouds 25,000 ft. (7,620 m)
Altimeter30.04 in.Hg (1017 mB)
Relative humidity63 %
Density altitude732 ft. (223 m)
Sea-level pressure101.7 kPa (1017 mB, 30.03 in.Hg)
Remarks Automated weather observing station with precipitation discriminator
Flight conditions Visual Meteorological Conditions
Raw dataKORD 230751Z 34006KT 10SM FEW250 21/13 A3004 RMK AO2 SLP168 T02060133
An error has occurred. This application may no longer respond until reloaded. Reload 🗙